Time;durP1;ratioP1;P1;durP2;ratioP2;P2;SDS_P1;SDS_P2;PMS_P1;PMS_P2;Temp;Humidity;BMP_temperature;BMP_pressure;BME280_temperature;BME280_humidity;BME280_pressure;Samples;Min_cycle;Max_cycle;Signal;HPM_P1;HPM_P2
2023/12/05 00:01:03;;;;;;;8.83;8.07;;;3.10;99.90;;;;;;5135303;27;20172;-69
2023/12/05 00:03:29;;;;;;;8.73;8.00;;;3.10;99.90;;;;;;5135872;27;20164;-68
2023/12/05 00:05:55;;;;;;;9.27;8.47;;;3.10;99.90;;;;;;5135410;27;20379;-69
2023/12/05 00:08:21;;;;;;;9.80;8.90;;;3.20;99.90;;;;;;5135928;27;20783;-68
2023/12/05 00:10:46;;;;;;;9.20;8.40;;;3.20;99.90;;;;;;5114909;28;20225;-68
2023/12/05 00:13:12;;;;;;;9.50;8.67;;;3.20;99.90;;;;;;5114547;28;20627;-68
2023/12/05 00:15:38;;;;;;;9.73;8.83;;;3.20;99.90;;;;;;5096282;28;20208;-68
2023/12/05 00:18:04;;;;;;;9.50;8.70;;;3.10;99.90;;;;;;5114505;28;20272;-69
2023/12/05 00:20:30;;;;;;;9.77;8.87;;;3.10;99.90;;;;;;5114408;28;20168;-68
2023/12/05 00:22:55;;;;;;;10.10;9.10;;;3.20;99.90;;;;;;5114878;28;20168;-69
2023/12/05 00:25:21;;;;;;;9.57;8.67;;;3.20;99.90;;;;;;5114226;28;20176;-68
2023/12/05 00:27:47;;;;;;;10.37;9.37;;;3.20;99.90;;;;;;5114359;28;20224;-69
2023/12/05 00:30:13;;;;;;;10.47;9.47;;;3.30;99.90;;;;;;5099647;27;20222;-68
2023/12/05 00:32:39;;;;;;;10.00;9.10;;;3.30;99.90;;;;;;5135031;27;20235;-68
2023/12/05 00:35:05;;;;;;;9.17;8.37;;;3.30;99.90;;;;;;5134698;27;20199;-69
2023/12/05 00:37:31;;;;;;;10.17;9.27;;;3.20;99.90;;;;;;5133614;27;20262;-68
2023/12/05 00:39:56;;;;;;;9.47;8.67;;;3.20;99.90;;;;;;5134177;27;20226;-68
2023/12/05 00:42:22;;;;;;;9.53;8.70;;;3.20;99.90;;;;;;5116070;27;20550;-69
2023/12/05 00:44:48;;;;;;;9.40;8.60;;;3.20;99.90;;;;;;5134356;27;20244;-69
2023/12/05 00:47:14;;;;;;;9.67;8.87;;;3.20;99.90;;;;;;5134692;27;20215;-68
2023/12/05 00:49:39;;;;;;;10.70;9.70;;;3.20;99.90;;;;;;5135159;27;20175;-69
2023/12/05 00:52:05;;;;;;;9.70;8.83;;;3.20;99.90;;;;;;5135433;27;20179;-69
2023/12/05 00:54:31;;;;;;;9.17;8.47;;;3.20;99.90;;;;;;5116095;27;20308;-68
2023/12/05 00:56:57;;;;;;;9.60;8.60;;;3.20;99.90;;;;;;5134675;27;20728;-68
2023/12/05 00:59:23;;;;;;;10.13;9.23;;;3.20;99.90;;;;;;5134414;27;20598;-68
2023/12/05 01:01:49;;;;;;;10.00;9.20;;;3.20;99.90;;;;;;5133914;27;20725;-68
2023/12/05 01:04:15;;;;;;;10.50;9.50;;;3.20;99.90;;;;;;5133178;27;20204;-67
2023/12/05 01:06:40;;;;;;;9.80;8.90;;;3.20;99.90;;;;;;5132621;27;20199;-67
2023/12/05 01:09:07;;;;;;;9.90;9.00;;;3.20;99.90;;;;;;5126658;27;20200;-67
2023/12/05 01:11:32;;;;;;;10.00;9.10;;;3.20;99.90;;;;;;5126390;27;20172;-68
2023/12/05 01:13:58;;;;;;;9.60;8.73;;;3.20;99.90;;;;;;5133563;27;20707;-68
2023/12/05 01:16:24;;;;;;;10.63;9.57;;;3.20;99.90;;;;;;5115213;28;20222;-67
2023/12/05 01:18:50;;;;;;;9.73;8.83;;;3.20;99.90;;;;;;5115252;28;20286;-67
2023/12/05 01:21:15;;;;;;;9.40;8.57;;;3.20;99.90;;;;;;5134042;28;20607;-67
2023/12/05 01:23:41;;;;;;;9.20;8.40;;;3.30;99.90;;;;;;5133670;28;20183;-68
2023/12/05 01:26:07;;;;;;;10.20;9.30;;;3.30;99.90;;;;;;5115697;28;20183;-67
2023/12/05 01:28:33;;;;;;;9.93;9.10;;;3.30;99.90;;;;;;5134017;28;20191;-68
2023/12/05 01:30:59;;;;;;;9.50;8.70;;;3.30;99.90;;;;;;5134003;28;20638;-68
2023/12/05 01:33:24;;;;;;;9.60;8.70;;;3.30;99.90;;;;;;5134090;28;20168;-68
2023/12/05 01:35:50;;;;;;;10.00;9.10;;;3.30;99.90;;;;;;5134582;28;20286;-68
2023/12/05 01:38:18;;;;;;;10.50;9.60;;;3.30;99.90;;;;;;5114957;28;20191;-68
2023/12/05 01:40:44;;;;;;;9.20;8.47;;;3.30;99.90;;;;;;5109520;28;20546;-68
2023/12/05 01:43:10;;;;;;;9.43;8.60;;;3.30;99.90;;;;;;5133797;28;20215;-68
2023/12/05 01:45:36;;;;;;;9.23;8.50;;;3.30;99.90;;;;;;5133701;28;20203;-68
2023/12/05 01:48:04;;;;;;;10.03;9.03;;;3.30;99.90;;;;;;5133197;28;20320;-68
2023/12/05 01:50:31;;;;;;;10.00;9.10;;;3.30;99.90;;;;;;5133072;28;20204;-68
2023/12/05 01:52:59;;;;;;;10.23;9.33;;;3.30;99.90;;;;;;5132034;28;20264;-68
2023/12/05 01:55:28;;;;;;;9.63;8.83;;;3.30;99.90;;;;;;5116997;27;20207;-68
2023/12/05 01:57:55;;;;;;;10.17;9.07;;;3.30;99.90;;;;;;5119231;27;20191;-68
2023/12/05 02:00:23;;;;;;;9.30;8.50;;;3.30;99.90;;;;;;5137668;27;20174;-68
2023/12/05 02:02:49;;;;;;;9.27;8.47;;;3.30;99.90;;;;;;5118963;27;20259;-68
2023/12/05 02:05:15;;;;;;;9.33;8.57;;;3.30;99.90;;;;;;5137205;27;20175;-67
2023/12/05 02:07:41;;;;;;;9.23;8.43;;;3.30;99.90;;;;;;5137308;27;20692;-68
2023/12/05 02:10:09;;;;;;;9.20;8.40;;;3.30;99.90;;;;;;5136802;27;20267;-67
2023/12/05 02:12:38;;;;;;;9.13;8.33;;;3.30;99.90;;;;;;5137198;27;20650;-68
2023/12/05 02:15:05;;;;;;;9.23;8.43;;;3.30;99.90;;;;;;5136646;27;20191;-67
2023/12/05 02:17:43;;;;;;;9.53;8.73;;;3.30;99.90;;;;;;5117174;27;20243;-67
2023/12/05 02:20:28;;;;;;;8.67;7.97;;;3.30;99.90;;;;;;5136990;27;20191;-67
2023/12/05 02:23:02;;;;;;;9.40;8.50;;;3.30;99.90;;;;;;5137512;27;20514;-67
2023/12/05 02:25:47;;;;;;;9.20;8.40;;;3.30;99.90;;;;;;5136324;27;20212;-67
2023/12/05 02:28:14;;;;;;;8.77;7.97;;;3.30;99.90;;;;;;5116762;28;20200;-67
2023/12/05 02:30:40;;;;;;;8.90;8.00;;;3.30;99.90;;;;;;5125908;27;20662;-67
2023/12/05 02:33:06;;;;;;;9.17;8.37;;;3.30;99.90;;;;;;5136988;27;20183;-67
2023/12/05 02:35:32;;;;;;;8.70;8.00;;;3.40;99.90;;;;;;5136601;27;20200;-67
2023/12/05 02:38:11;;;;;;;8.97;8.17;;;3.40;99.90;;;;;;5118253;27;20200;-67
2023/12/05 02:40:46;;;;;;;9.47;8.67;;;3.30;99.90;;;;;;5111779;27;20206;-67
2023/12/05 02:43:18;;;;;;;8.80;8.07;;;3.40;99.90;;;;;;5135745;27;20585;-67
2023/12/05 02:45:48;;;;;;;8.67;7.97;;;3.30;99.90;;;;;;5118299;27;20191;-67
2023/12/05 02:48:15;;;;;;;9.23;8.37;;;3.30;99.90;;;;;;5118276;27;20192;-68
2023/12/05 02:50:41;;;;;;;9.33;8.53;;;3.30;99.90;;;;;;5136629;27;20176;-68
2023/12/05 02:53:07;;;;;;;8.97;8.17;;;3.30;99.90;;;;;;5136300;27;20184;-67
2023/12/05 02:55:32;;;;;;;9.10;8.30;;;3.30;99.90;;;;;;5135578;27;20203;-68
2023/12/05 02:57:59;;;;;;;8.70;8.00;;;3.30;99.90;;;;;;5136665;27;20310;-67
2023/12/05 03:00:25;;;;;;;8.70;8.00;;;3.30;99.90;;;;;;5137082;27;20211;-67
2023/12/05 03:02:51;;;;;;;9.10;8.30;;;3.30;99.90;;;;;;5118155;27;20229;-68
2023/12/05 03:05:17;;;;;;;8.83;8.13;;;3.30;99.90;;;;;;5117154;27;20187;-67
2023/12/05 03:07:43;;;;;;;9.33;8.47;;;3.30;99.90;;;;;;5114285;27;20207;-67
2023/12/05 03:10:09;;;;;;;8.73;8.03;;;3.30;99.90;;;;;;5134453;27;20561;-68
2023/12/05 03:12:35;;;;;;;9.27;8.47;;;3.30;99.90;;;;;;5136115;27;20187;-67
2023/12/05 03:15:01;;;;;;;7.90;7.30;;;3.40;99.90;;;;;;5135614;27;20282;-67
2023/12/05 03:17:27;;;;;;;9.30;8.40;;;3.30;99.90;;;;;;5135605;27;20278;-67
2023/12/05 03:19:52;;;;;;;8.60;7.80;;;3.30;99.90;;;;;;5135983;27;20187;-67
2023/12/05 03:22:18;;;;;;;8.87;8.17;;;3.30;99.90;;;;;;5135779;27;20179;-67
2023/12/05 03:24:44;;;;;;;9.27;8.43;;;3.30;99.90;;;;;;5135639;27;20260;-67
2023/12/05 03:27:10;;;;;;;9.30;8.50;;;3.30;99.90;;;;;;5135450;27;20227;-67
2023/12/05 03:29:35;;;;;;;9.00;8.20;;;3.30;99.90;;;;;;5117642;27;20175;-67
2023/12/05 03:32:01;;;;;;;10.20;9.20;;;3.30;99.90;;;;;;5136114;27;20274;-67
2023/12/05 03:34:27;;;;;;;9.47;8.17;;;3.30;99.90;;;;;;5134957;27;20176;-67
2023/12/05 03:36:53;;;;;;;9.37;8.47;;;3.30;99.90;;;;;;5117341;27;20596;-67
2023/12/05 03:39:19;;;;;;;8.83;7.93;;;3.30;99.90;;;;;;5135315;27;20657;-67
2023/12/05 03:41:46;;;;;;;9.17;8.37;;;3.30;99.90;;;;;;5135380;27;20278;-67
2023/12/05 03:44:11;;;;;;;8.67;7.97;;;3.30;99.90;;;;;;5135502;27;20199;-67
2023/12/05 03:46:37;;;;;;;9.37;8.47;;;3.30;99.90;;;;;;5134925;27;20283;-67
2023/12/05 03:49:03;;;;;;;9.00;8.20;;;3.30;99.90;;;;;;5134940;27;20675;-66
2023/12/05 03:51:30;;;;;;;9.73;8.77;;;3.30;99.90;;;;;;5135381;27;20207;-67
2023/12/05 03:53:56;;;;;;;9.67;8.63;;;3.30;99.90;;;;;;5134581;27;20179;-66
2023/12/05 03:56:22;;;;;;;9.10;8.30;;;3.40;99.90;;;;;;5134850;27;20230;-66
2023/12/05 03:58:48;;;;;;;8.67;7.93;;;3.40;99.90;;;;;;5135216;27;20231;-67
2023/12/05 04:01:13;;;;;;;8.90;8.10;;;3.40;99.90;;;;;;5135222;27;20172;-67
2023/12/05 04:03:39;;;;;;;8.77;8.00;;;3.40;99.90;;;;;;5135291;27;20196;-67
2023/12/05 04:06:05;;;;;;;8.00;7.37;;;3.50;99.90;;;;;;5116835;27;20180;-67
2023/12/05 04:08:31;;;;;;;8.47;7.77;;;3.50;99.90;;;;;;5135202;27;20658;-66
2023/12/05 04:10:57;;;;;;;8.90;8.10;;;3.50;99.90;;;;;;5135074;27;20232;-67
2023/12/05 04:13:23;;;;;;;9.17;8.27;;;3.50;99.90;;;;;;5135142;27;20243;-67
2023/12/05 04:15:49;;;;;;;8.60;7.80;;;3.50;99.90;;;;;;5116609;27;20231;-67
2023/12/05 04:18:15;;;;;;;8.70;7.97;;;3.50;99.90;;;;;;5116015;27;20584;-67
2023/12/05 04:20:41;;;;;;;9.50;8.70;;;3.50;99.90;;;;;;5135074;27;20187;-67
2023/12/05 04:23:07;;;;;;;9.37;8.40;;;3.50;99.90;;;;;;5116514;27;20263;-67
2023/12/05 04:25:32;;;;;;;9.47;8.57;;;3.50;99.90;;;;;;5134535;27;20259;-66
2023/12/05 04:27:58;;;;;;;9.93;8.70;;;3.50;99.90;;;;;;5134814;27;20333;-67
2023/12/05 04:30:24;;;;;;;9.53;8.53;;;3.60;99.90;;;;;;5134577;27;20219;-67
2023/12/05 04:32:50;;;;;;;9.40;8.50;;;3.60;99.90;;;;;;5134259;27;20192;-67
2023/12/05 04:35:16;;;;;;;9.80;8.80;;;3.60;99.90;;;;;;5134925;27;20199;-67
2023/12/05 04:37:42;;;;;;;9.03;8.23;;;3.60;99.90;;;;;;5134550;27;20203;-67
2023/12/05 04:40:09;;;;;;;9.60;8.70;;;3.50;99.90;;;;;;5120685;27;20185;-67
2023/12/05 04:42:35;;;;;;;10.67;9.67;;;3.50;99.90;;;;;;5130599;27;20186;-67
2023/12/05 04:45:00;;;;;;;9.63;8.77;;;3.60;99.90;;;;;;5134438;27;20258;-66
2023/12/05 04:47:26;;;;;;;10.97;9.90;;;3.60;99.90;;;;;;5133978;27;20696;-67
2023/12/05 04:49:52;;;;;;;10.73;9.73;;;3.60;99.90;;;;;;5134122;27;20693;-67
2023/12/05 04:52:18;;;;;;;11.27;10.20;;;3.60;99.90;;;;;;5134174;27;20208;-67
2023/12/05 04:54:43;;;;;;;10.50;9.50;;;3.60;99.90;;;;;;5115110;27;20709;-67
2023/12/05 04:57:09;;;;;;;10.67;9.57;;;3.60;99.90;;;;;;5134046;27;20202;-67
2023/12/05 04:59:35;;;;;;;11.33;10.23;;;3.60;99.90;;;;;;5115347;27;20183;-67
2023/12/05 05:02:01;;;;;;;12.77;10.47;;;3.60;99.90;;;;;;5133710;27;20176;-67
2023/12/05 05:04:26;;;;;;;10.97;9.93;;;3.60;99.90;;;;;;5133676;27;20179;-67
2023/12/05 05:06:52;;;;;;;11.27;10.17;;;3.60;99.90;;;;;;5134111;27;20203;-67
2023/12/05 05:09:18;;;;;;;10.43;9.43;;;3.70;99.90;;;;;;5125775;27;20271;-67
2023/12/05 05:11:44;;;;;;;10.83;9.67;;;3.70;99.90;;;;;;5131161;27;20202;-67
2023/12/05 05:14:09;;;;;;;10.90;9.63;;;3.80;99.90;;;;;;5134721;27;20201;-68
2023/12/05 05:16:35;;;;;;;10.13;9.30;;;3.80;99.90;;;;;;5134264;27;20202;-67
2023/12/05 05:19:01;;;;;;;10.60;9.60;;;3.80;99.90;;;;;;5135312;28;20245;-67
2023/12/05 05:21:27;;;;;;;10.10;9.10;;;3.80;99.90;;;;;;5134061;28;20182;-67
2023/12/05 05:23:52;;;;;;;9.67;8.87;;;3.80;99.90;;;;;;5133915;28;20163;-67
2023/12/05 05:26:18;;;;;;;10.20;9.10;;;3.80;99.90;;;;;;5133697;28;20180;-67
2023/12/05 05:28:44;;;;;;;9.10;8.30;;;3.80;99.90;;;;;;5133777;27;20203;-67
2023/12/05 05:31:10;;;;;;;9.00;8.20;;;3.70;99.90;;;;;;5137586;27;20642;-67
2023/12/05 05:33:35;;;;;;;9.73;8.83;;;3.70;99.90;;;;;;5138533;27;20500;-67
2023/12/05 05:36:01;;;;;;;9.13;8.33;;;3.80;99.90;;;;;;5138223;27;20658;-68
2023/12/05 05:38:28;;;;;;;9.40;8.60;;;3.80;99.90;;;;;;5137884;27;20318;-67
2023/12/05 05:41:04;;;;;;;10.23;8.70;;;3.80;99.90;;;;;;5137737;27;20172;-67
2023/12/05 05:43:31;;;;;;;8.97;8.17;;;3.90;99.90;;;;;;5119641;27;20199;-67
2023/12/05 05:45:56;;;;;;;9.00;8.20;;;3.90;99.90;;;;;;5137940;27;20650;-67
2023/12/05 05:48:22;;;;;;;9.67;8.67;;;3.90;99.90;;;;;;5138044;27;20206;-68
2023/12/05 05:50:48;;;;;;;9.43;8.53;;;4.00;99.90;;;;;;5138067;27;20186;-67
2023/12/05 05:53:14;;;;;;;8.77;7.97;;;4.00;99.90;;;;;;5137720;27;20179;-67
2023/12/05 05:55:40;;;;;;;8.70;8.00;;;4.00;99.90;;;;;;5137595;27;20196;-67
2023/12/05 05:58:05;;;;;;;8.90;8.10;;;4.00;99.90;;;;;;5137581;27;20259;-68
2023/12/05 06:00:31;;;;;;;8.53;7.83;;;4.00;99.90;;;;;;5137536;27;20167;-67
2023/12/05 06:02:57;;;;;;;8.90;8.20;;;4.00;99.90;;;;;;5137825;27;20314;-68
2023/12/05 06:05:24;;;;;;;8.70;8.00;;;4.00;99.90;;;;;;5137758;27;20224;-67
2023/12/05 06:07:50;;;;;;;8.80;8.10;;;4.00;99.90;;;;;;5137446;27;20681;-67
2023/12/05 06:10:16;;;;;;;9.50;8.60;;;4.00;99.90;;;;;;5120801;27;20188;-68
2023/12/05 06:12:42;;;;;;;9.47;8.47;;;4.00;99.90;;;;;;5116835;28;20245;-68
2023/12/05 06:15:08;;;;;;;9.63;8.73;;;4.00;99.90;;;;;;5116753;28;20200;-67
2023/12/05 06:17:34;;;;;;;9.63;8.73;;;4.10;99.90;;;;;;5117194;28;20604;-68
2023/12/05 06:20:00;;;;;;;8.93;8.17;;;4.10;99.90;;;;;;5117171;28;20180;-68
2023/12/05 06:22:25;;;;;;;9.90;8.97;;;4.00;99.90;;;;;;5116709;28;20173;-68
2023/12/05 06:24:51;;;;;;;9.53;8.73;;;4.10;99.90;;;;;;5098177;28;20245;-67
2023/12/05 06:27:17;;;;;;;9.97;9.07;;;4.10;99.90;;;;;;5098477;28;20200;-67
2023/12/05 06:29:44;;;;;;;10.07;9.03;;;4.20;99.90;;;;;;5116550;28;20173;-67
2023/12/05 06:32:10;;;;;;;10.37;9.37;;;4.20;99.90;;;;;;5098396;28;20173;-68
2023/12/05 06:34:35;;;;;;;10.70;9.60;;;4.20;99.90;;;;;;5116440;28;20631;-68
2023/12/05 06:37:01;;;;;;;11.57;10.40;;;4.30;99.90;;;;;;5129763;27;20200;-68
2023/12/05 06:39:27;;;;;;;12.63;10.50;;;4.30;99.90;;;;;;5136070;27;20187;-67
2023/12/05 06:41:53;;;;;;;12.00;10.77;;;4.30;99.90;;;;;;5136771;27;20678;-67
2023/12/05 06:44:19;;;;;;;12.73;11.03;;;4.40;99.90;;;;;;5136759;27;20180;-67
2023/12/05 06:46:44;;;;;;;13.27;11.43;;;4.40;99.90;;;;;;5136749;27;20347;-67
2023/12/05 06:49:10;;;;;;;12.43;11.23;;;4.40;99.90;;;;;;5136415;27;20232;-67
2023/12/05 06:51:36;;;;;;;12.10;10.90;;;4.50;99.90;;;;;;5136765;27;20179;-67
2023/12/05 06:54:03;;;;;;;12.60;11.30;;;4.50;99.90;;;;;;5136830;27;20164;-67
2023/12/05 06:56:29;;;;;;;13.57;11.50;;;4.50;99.90;;;;;;5136306;27;20192;-67
2023/12/05 06:58:54;;;;;;;12.50;11.20;;;4.60;99.90;;;;;;5118108;27;20216;-66
2023/12/05 07:01:20;;;;;;;12.67;11.20;;;4.50;99.90;;;;;;5136579;27;20163;-66
2023/12/05 07:03:46;;;;;;;12.77;11.00;;;4.50;99.90;;;;;;5118080;27;20182;-67
2023/12/05 07:06:12;;;;;;;11.37;10.23;;;4.50;99.90;;;;;;5137012;27;20233;-67
2023/12/05 07:08:38;;;;;;;12.43;11.13;;;4.50;99.90;;;;;;5133906;27;20204;-66
2023/12/05 07:11:07;;;;;;;12.00;10.80;;;4.60;99.90;;;;;;5115674;28;20157;-66
2023/12/05 07:13:33;;;;;;;13.20;10.90;;;4.60;99.90;;;;;;5115786;28;20177;-66
2023/12/05 07:15:59;;;;;;;13.67;10.87;;;4.60;99.90;;;;;;5115927;28;20567;-66
2023/12/05 07:18:24;;;;;;;11.67;10.17;;;4.60;99.90;;;;;;5115585;28;20340;-66
2023/12/05 07:20:50;;;;;;;11.23;10.00;;;4.60;99.90;;;;;;5119341;27;20179;-66
2023/12/05 07:23:16;;;;;;;12.83;10.97;;;4.60;99.90;;;;;;5117513;27;20280;-67
2023/12/05 07:25:42;;;;;;;11.53;10.33;;;4.60;99.90;;;;;;5135776;27;20654;-67
2023/12/05 07:28:09;;;;;;;11.67;10.53;;;4.70;99.90;;;;;;5130882;27;20196;-67
2023/12/05 07:30:34;;;;;;;12.40;11.00;;;4.70;99.90;;;;;;5117509;27;20180;-67
2023/12/05 07:33:01;;;;;;;11.07;9.83;;;4.70;99.90;;;;;;5135411;27;20547;-67
2023/12/05 07:35:27;;;;;;;11.63;9.87;;;4.80;99.90;;;;;;5131871;27;20230;-67
2023/12/05 07:37:52;;;;;;;12.27;10.93;;;4.80;99.90;;;;;;5117955;27;20613;-67
2023/12/05 07:40:19;;;;;;;11.33;9.57;;;4.80;99.90;;;;;;5113466;27;20190;-67
2023/12/05 07:42:45;;;;;;;11.27;10.13;;;4.80;99.90;;;;;;5135713;27;20590;-67
2023/12/05 07:45:11;;;;;;;11.13;10.03;;;4.90;99.90;;;;;;5117125;27;20192;-67
2023/12/05 07:47:36;;;;;;;10.57;9.53;;;4.90;99.90;;;;;;5135665;27;20247;-67
2023/12/05 07:50:02;;;;;;;11.90;10.40;;;4.90;99.90;;;;;;5134972;27;20220;-67
2023/12/05 07:52:28;;;;;;;10.67;9.63;;;4.90;99.90;;;;;;5114658;27;20194;-67
2023/12/05 07:54:54;;;;;;;12.10;10.53;;;5.00;99.90;;;;;;5135149;27;20179;-67
2023/12/05 07:57:22;;;;;;;11.23;10.03;;;5.10;99.90;;;;;;5135377;27;20248;-67
2023/12/05 07:59:51;;;;;;;11.00;10.00;;;5.10;99.90;;;;;;5133645;27;20175;-67
2023/12/05 08:02:17;;;;;;;10.23;9.23;;;5.10;99.90;;;;;;5135698;27;20175;-67
2023/12/05 08:04:43;;;;;;;10.27;9.17;;;5.10;99.90;;;;;;5116841;27;20186;-67
2023/12/05 08:07:09;;;;;;;11.23;10.10;;;5.10;99.90;;;;;;5135112;27;20278;-67
2023/12/05 08:09:34;;;;;;;9.90;9.03;;;5.20;99.90;;;;;;5135418;27;20182;-67
2023/12/05 08:12:00;;;;;;;9.47;8.57;;;5.20;99.90;;;;;;5135127;27;20168;-67
2023/12/05 08:14:26;;;;;;;9.93;8.97;;;5.20;99.90;;;;;;5136188;27;20654;-67
2023/12/05 08:16:52;;;;;;;10.13;8.80;;;5.30;99.90;;;;;;5116856;27;20215;-67
2023/12/05 08:19:17;;;;;;;9.53;8.63;;;5.30;99.90;;;;;;5135081;27;20168;-67
2023/12/05 08:21:43;;;;;;;9.67;8.73;;;5.30;99.90;;;;;;5135541;27;20537;-68
2023/12/05 08:24:09;;;;;;;9.40;8.60;;;5.40;99.90;;;;;;5116482;27;20652;-67
2023/12/05 08:26:35;;;;;;;8.90;8.10;;;5.40;99.90;;;;;;5134394;27;20176;-67
2023/12/05 08:29:01;;;;;;;9.57;8.57;;;5.50;99.90;;;;;;5134755;27;20547;-67
2023/12/05 08:31:27;;;;;;;9.50;8.50;;;5.50;99.90;;;;;;5134714;27;20580;-67
2023/12/05 08:33:53;;;;;;;11.30;8.63;;;5.70;99.90;;;;;;5134696;27;20227;-67
2023/12/05 08:36:19;;;;;;;8.50;7.70;;;5.70;99.90;;;;;;5116115;27;20231;-67
2023/12/05 08:38:45;;;;;;;9.30;8.40;;;5.70;99.90;;;;;;5134410;27;20203;-66
2023/12/05 08:41:19;;;;;;;9.43;8.50;;;5.80;99.90;;;;;;5134295;27;20259;-66
2023/12/05 08:43:46;;;;;;;8.67;7.87;;;5.80;99.90;;;;;;5134582;27;20654;-67
2023/12/05 08:46:13;;;;;;;8.63;7.83;;;5.90;99.90;;;;;;5134326;27;20203;-66
2023/12/05 08:48:39;;;;;;;8.87;8.03;;;5.90;99.90;;;;;;5115885;27;20199;-67
2023/12/05 08:51:05;;;;;;;8.10;7.40;;;6.00;99.90;;;;;;5134487;27;20176;-67
2023/12/05 08:53:31;;;;;;;8.43;7.63;;;6.00;99.90;;;;;;5134682;27;20557;-67
2023/12/05 08:55:57;;;;;;;8.07;7.37;;;6.00;99.90;;;;;;5134149;27;20191;-66
2023/12/05 08:58:23;;;;;;;7.40;6.73;;;6.10;99.90;;;;;;5134185;27;20195;-66
2023/12/05 09:00:48;;;;;;;7.53;6.93;;;6.10;99.90;;;;;;5134314;27;20195;-66
2023/12/05 09:03:14;;;;;;;6.93;6.37;;;6.10;99.90;;;;;;5134506;27;20179;-67
2023/12/05 09:05:40;;;;;;;7.80;7.03;;;6.10;99.90;;;;;;5115798;27;20576;-67
2023/12/05 09:08:06;;;;;;;7.20;6.60;;;6.10;99.90;;;;;;5134714;27;20199;-67
2023/12/05 09:10:32;;;;;;;7.93;7.00;;;6.20;99.90;;;;;;5115355;27;20278;-67
2023/12/05 09:12:57;;;;;;;6.47;5.97;;;6.20;99.90;;;;;;5134186;27;20172;-67
2023/12/05 09:15:23;;;;;;;7.10;6.50;;;6.20;99.90;;;;;;5115634;27;20761;-66
2023/12/05 09:17:49;;;;;;;7.30;6.47;;;6.20;99.90;;;;;;5134573;27;20199;-67
2023/12/05 09:20:15;;;;;;;6.30;5.90;;;6.20;99.90;;;;;;5134010;27;20168;-67
2023/12/05 09:22:41;;;;;;;6.20;5.70;;;6.20;99.90;;;;;;5115718;28;20203;-67
2023/12/05 09:25:08;;;;;;;6.20;5.70;;;6.30;99.90;;;;;;5115386;28;20276;-67
2023/12/05 09:27:33;;;;;;;5.87;5.47;;;6.30;99.90;;;;;;5133798;28;20199;-67
2023/12/05 09:29:59;;;;;;;6.00;5.60;;;6.40;99.90;;;;;;5134537;28;20182;-67
2023/12/05 09:32:25;;;;;;;6.13;5.63;;;6.30;99.90;;;;;;5115797;28;20665;-68
2023/12/05 09:34:51;;;;;;;6.00;5.50;;;6.30;99.90;;;;;;5133827;28;20199;-68
2023/12/05 09:37:17;;;;;;;6.03;5.63;;;6.40;99.90;;;;;;5133818;28;20191;-67
2023/12/05 09:39:43;;;;;;;5.90;5.50;;;6.40;99.90;;;;;;5133982;28;20190;-68
2023/12/05 09:42:13;;;;;;;6.40;5.90;;;6.40;99.90;;;;;;5133645;28;20176;-68
2023/12/05 09:44:44;;;;;;;5.73;5.20;;;6.40;99.90;;;;;;5115441;28;20172;-68
2023/12/05 09:47:14;;;;;;;5.50;5.20;;;6.50;99.90;;;;;;5134229;28;20195;-68
2023/12/05 09:49:41;;;;;;;5.50;5.20;;;6.50;99.90;;;;;;5134331;28;20191;-68
2023/12/05 09:52:08;;;;;;;6.17;5.63;;;6.40;99.90;;;;;;5133784;28;20266;-67
2023/12/05 09:54:35;;;;;;;5.10;4.80;;;6.40;99.90;;;;;;5115344;28;20182;-67
2023/12/05 09:57:02;;;;;;;5.23;4.93;;;6.60;99.90;;;;;;5133519;28;20211;-68
2023/12/05 09:59:28;;;;;;;5.67;5.17;;;6.70;99.90;;;;;;5133733;28;20165;-68
2023/12/05 10:01:58;;;;;;;5.73;5.33;;;6.80;99.90;;;;;;5134294;28;20522;-68
2023/12/05 10:04:27;;;;;;;5.83;5.33;;;6.80;99.90;;;;;;5115214;28;20171;-68
2023/12/05 10:06:54;;;;;;;5.97;5.53;;;6.90;99.90;;;;;;5134020;28;20195;-68
2023/12/05 10:09:22;;;;;;;5.63;5.27;;;7.00;99.90;;;;;;5134049;28;20183;-68
2023/12/05 10:11:48;;;;;;;5.13;4.70;;;7.00;99.90;;;;;;5133427;28;20187;-68
2023/12/05 10:14:15;;;;;;;5.80;5.30;;;7.10;99.90;;;;;;5115168;28;20175;-68
2023/12/05 10:16:43;;;;;;;5.10;4.80;;;7.20;99.90;;;;;;5117552;27;20302;-68
2023/12/05 10:19:09;;;;;;;5.30;4.97;;;7.20;99.90;;;;;;5137415;27;20176;-68
2023/12/05 10:21:36;;;;;;;5.30;4.90;;;7.30;99.90;;;;;;5118800;27;20203;-68
2023/12/05 10:24:02;;;;;;;5.60;5.10;;;7.30;99.90;;;;;;5137495;27;20176;-67
2023/12/05 10:26:28;;;;;;;5.00;4.70;;;7.40;99.90;;;;;;5136853;27;20232;-68
2023/12/05 10:28:57;;;;;;;5.17;4.87;;;7.40;99.90;;;;;;5137433;27;20180;-68
2023/12/05 10:31:23;;;;;;;5.40;5.10;;;7.50;99.90;;;;;;5137046;27;20171;-68
2023/12/05 10:33:49;;;;;;;5.07;4.77;;;7.60;99.90;;;;;;5137038;27;20258;-68
2023/12/05 10:36:16;;;;;;;4.80;4.50;;;7.60;99.90;;;;;;5118643;27;20648;-68
2023/12/05 10:38:45;;;;;;;4.80;4.60;;;7.60;99.90;;;;;;5118515;27;20207;-68
2023/12/05 10:41:12;;;;;;;5.03;4.73;;;7.70;99.90;;;;;;5136956;27;20643;-68
2023/12/05 10:43:48;;;;;;;5.00;4.70;;;7.70;99.90;;;;;;5118596;27;20175;-69
2023/12/05 10:46:14;;;;;;;4.97;4.70;;;7.80;99.90;;;;;;5137122;27;20537;-68
2023/12/05 10:48:40;;;;;;;4.70;4.50;;;7.80;99.90;;;;;;5137015;27;20195;-68
2023/12/05 10:51:06;;;;;;;4.40;4.20;;;7.90;99.90;;;;;;5137215;27;20519;-68
2023/12/05 10:53:35;;;;;;;4.77;4.47;;;7.90;99.90;;;;;;5137135;27;20777;-68
2023/12/05 10:56:14;;;;;;;5.23;4.87;;;8.00;99.90;;;;;;5136588;27;20669;-69
2023/12/05 10:58:41;;;;;;;4.97;4.67;;;8.00;99.90;;;;;;5118147;27;20196;-69
2023/12/05 11:01:11;;;;;;;4.90;4.60;;;8.00;99.90;;;;;;5136687;27;20618;-69
2023/12/05 11:03:41;;;;;;;4.67;4.37;;;8.10;99.90;;;;;;5118143;27;20171;-69
2023/12/05 11:06:08;;;;;;;4.80;4.50;;;8.30;99.90;;;;;;5136721;27;20254;-69
2023/12/05 11:08:37;;;;;;;4.50;4.27;;;8.50;99.90;;;;;;5136311;27;20199;-68
2023/12/05 11:11:04;;;;;;;4.87;4.53;;;8.60;99.90;;;;;;5136141;27;20175;-69
2023/12/05 11:13:32;;;;;;;4.40;4.20;;;8.90;99.90;;;;;;5136612;27;20172;-69
2023/12/05 11:16:09;;;;;;;4.63;4.33;;;9.10;99.90;;;;;;5136143;27;20198;-68
2023/12/05 11:18:39;;;;;;;4.40;4.20;;;9.20;99.90;;;;;;5136672;27;20232;-69
2023/12/05 11:21:08;;;;;;;4.67;4.37;;;9.40;99.90;;;;;;5136840;27;20155;-68
2023/12/05 11:23:49;;;;;;;4.50;4.30;;;9.40;99.90;;;;;;5136184;27;20172;-68
2023/12/05 11:26:41;;;;;;;4.67;4.47;;;9.20;99.90;;;;;;5135759;27;20160;-69
2023/12/05 11:29:12;;;;;;;4.40;4.20;;;9.10;99.90;;;;;;5135992;27;20221;-69
2023/12/05 11:31:47;;;;;;;4.40;4.10;;;9.20;99.90;;;;;;5117635;27;20179;-69
2023/12/05 11:34:43;;;;;;;4.70;4.40;;;9.30;99.90;;;;;;5136000;27;20209;-68
2023/12/05 11:37:17;;;;;;;4.40;4.13;;;9.20;99.90;;;;;;5135826;27;20203;-69
2023/12/05 11:39:43;;;;;;;4.23;4.00;;;9.10;99.90;;;;;;5135905;27;20173;-69
2023/12/05 11:42:10;;;;;;;4.40;4.10;;;9.10;99.90;;;;;;5135626;27;20176;-67
2023/12/05 11:44:37;;;;;;;4.20;4.00;;;9.00;99.90;;;;;;5136022;27;20164;-69
2023/12/05 11:47:06;;;;;;;4.50;4.30;;;8.60;99.90;;;;;;5117021;27;20302;-68
2023/12/05 11:49:48;;;;;;;4.70;4.40;;;8.40;99.90;;;;;;5135641;27;20638;-68
2023/12/05 11:52:14;;;;;;;4.73;4.33;;;8.20;99.90;;;;;;5136122;27;20640;-68
2023/12/05 11:54:43;;;;;;;4.67;4.30;;;8.10;99.90;;;;;;5135484;27;20199;-67
2023/12/05 11:57:17;;;;;;;4.70;4.30;;;8.00;99.90;;;;;;5116536;27;20231;-67
2023/12/05 11:59:45;;;;;;;4.60;4.30;;;7.80;99.90;;;;;;5117083;27;20240;-68
2023/12/05 12:02:18;;;;;;;4.73;4.43;;;7.80;99.90;;;;;;5135630;27;20634;-68
2023/12/05 12:04:47;;;;;;;4.67;4.47;;;7.70;99.90;;;;;;5135605;27;20148;-68
2023/12/05 12:07:13;;;;;;;4.87;4.47;;;7.60;99.90;;;;;;5116814;27;20196;-68
2023/12/05 12:09:42;;;;;;;4.60;4.30;;;7.60;99.90;;;;;;5135287;27;20232;-68
2023/12/05 12:12:08;;;;;;;4.80;4.60;;;7.50;99.90;;;;;;5116522;27;20206;-68
2023/12/05 12:14:34;;;;;;;4.80;4.50;;;7.40;99.90;;;;;;5116705;27;20176;-68
2023/12/05 12:17:04;;;;;;;4.67;4.47;;;7.40;99.90;;;;;;5134985;27;20637;-67
2023/12/05 12:19:30;;;;;;;4.67;4.40;;;7.40;99.90;;;;;;5135111;27;20175;-69
2023/12/05 12:21:56;;;;;;;4.93;4.63;;;7.30;99.90;;;;;;5135005;27;20223;-69
2023/12/05 12:24:24;;;;;;;4.90;4.60;;;7.30;99.90;;;;;;5116733;27;20258;-69
2023/12/05 12:26:57;;;;;;;4.33;4.07;;;7.20;99.90;;;;;;5134603;27;20187;-68
2023/12/05 12:29:24;;;;;;;4.67;4.47;;;7.20;99.90;;;;;;5135540;27;20500;-68
2023/12/05 12:32:02;;;;;;;4.83;4.50;;;7.20;99.90;;;;;;5135452;27;20227;-68
2023/12/05 12:34:28;;;;;;;4.70;4.50;;;7.10;99.90;;;;;;5134919;27;20194;-68
2023/12/05 12:36:56;;;;;;;5.10;4.70;;;7.10;99.90;;;;;;5116636;27;20275;-68
2023/12/05 12:39:23;;;;;;;4.83;4.53;;;7.10;99.90;;;;;;5116122;27;20180;-69
2023/12/05 12:41:55;;;;;;;5.13;4.63;;;7.10;99.90;;;;;;5116078;27;20218;-68
2023/12/05 12:44:21;;;;;;;5.10;4.70;;;7.10;99.90;;;;;;5116325;27;20172;-68
2023/12/05 12:46:47;;;;;;;5.27;4.77;;;7.00;99.90;;;;;;5134853;27;20206;-68
2023/12/05 12:49:13;;;;;;;4.67;4.37;;;7.00;99.90;;;;;;5134639;27;20184;-68
2023/12/05 12:51:40;;;;;;;4.53;4.33;;;6.90;99.90;;;;;;5135125;27;20228;-69